Aérodrome :
LOGIN :

S'inscrire | Disclaimer

   EN    FR    IT 

 










Légende :    VFR   VFR Marginal   IFR   IFR Intensif   IFR Très Intensif
Visi : 
Plafond : 
>= 8 km
>= 3000ft
5 à 8 km
1000 à 3000 ft
1500m à 5 km
500 à 1000 ft
800 à 1500m
200 à 500 ft
< 800m
< 200 ft
Symboles :   Orages  Brouillard  Fortes neiges  Fortes précipitations  Vent > 20 kt
SIGMETs :   Divers  Orages  Givrage  Turbulence  Onde Orograph.  Cendres Volcan.






- Altitude de l'aérodrome : 177 ft
- Code IATA : BRI


LIBD - Palese Macchie Bari

DERNIER METAR :
  • 250850Z 01006KT 340V050 CAVOK 25/22 Q1012

METARs EXPIRÉS :
  • 250820Z 02005KT 340V060 CAVOK 25/22 Q1012
  • 250750Z 36004KT 310V040 CAVOK 26/21 Q1012
  • 250720Z 11003KT 030V160 CAVOK 28/17 Q1012
  • 250650Z VRB02KT CAVOK 27/18 Q1011
  • 250620Z 27003KT 230V310 CAVOK 25/19 Q1011
  • 250550Z 29003KT 240V310 CAVOK 25/19 Q1011
  • 250520Z 25003KT 230V290 CAVOK 24/17 Q1011
  • 250450Z 24004KT CAVOK 23/15 Q1011
  • 250420Z 28003KT CAVOK 22/15 Q1011

TAF TAF LIBD
Valide du 25 à 06h jusqu'au 26 à 06h UTC


250500Z 2506/2606 28007KT 9999 FEW035
BECMG 2506/2508 22010KT
TEMPO 2509/2513 SHRA
BECMG 2512/2514 11010KT
BECMG 2517/2519 VRB05KT



MET'MAP, la Météo Aéronautique d'un coup d'oeil ! - Copyright ORBIFLY Décembre 2007 - Disclaimer

ORBIFLY MET'MAP TEAM :

Programmation & Développement : Alexandra Zaïnal
Sur une idée originale de : Baudouin d'Aumeries
Soutien technique & logistique : Manuel Goepfert
Assistance : Marc-Olivier Méhu




SOURCES & CREDITS :

   NOAA